Time;durP1;ratioP1;P1;durP2;ratioP2;P2;SDS_P1;SDS_P2;PMS_P1;PMS_P2;Temp;Humidity;BMP_temperature;BMP_pressure;BME280_temperature;BME280_humidity;BME280_pressure;Samples;Min_cycle;Max_cycle;Signal;HPM_P1;HPM_P2
2023/09/30 00:01:39;;;;;;;;;;;22.20;57.20;;;;;;1541599;76;1185;-55
2023/09/30 00:03:41;;;;;;;;;;;22.20;57.40;;;;;;1540497;76;647;-55
2023/09/30 00:05:42;;;;;;;;;;;22.10;57.80;;;;;;1539978;76;729;-55
2023/09/30 00:07:44;;;;;;;;;;;22.20;57.30;;;;;;1535402;76;1924;-54
2023/09/30 00:09:46;;;;;;;;;;;22.10;57.70;;;;;;1545056;76;783;-55
2023/09/30 00:11:48;;;;;;;;;;;22.20;57.70;;;;;;1548781;76;1584;-53
2023/09/30 00:13:50;;;;;;;;;;;22.10;57.30;;;;;;1546638;76;781;-54
2023/09/30 00:15:52;;;;;;;;;;;22.10;57.40;;;;;;1543197;76;767;-54
2023/09/30 00:17:54;;;;;;;;;;;22.10;57.60;;;;;;1545404;76;715;-52
2023/09/30 00:19:56;;;;;;;;;;;22.20;57.80;;;;;;1543536;76;711;-53
2023/09/30 00:21:58;;;;;;;;;;;22.20;57.80;;;;;;1548102;76;1162;-54
2023/09/30 00:24:00;;;;;;;;;;;22.10;57.80;;;;;;1543385;76;773;-54
2023/09/30 00:26:02;;;;;;;;;;;22.10;57.90;;;;;;1540130;76;1493;-51
2023/09/30 00:28:04;;;;;;;;;;;22.10;57.60;;;;;;1541217;76;1939;-54
2023/09/30 00:30:06;;;;;;;;;;;22.10;58.00;;;;;;1543541;76;1129;-52
2023/09/30 00:32:08;;;;;;;;;;;22.10;58.10;;;;;;1545944;76;722;-54
2023/09/30 00:34:10;;;;;;;;;;;22.20;57.60;;;;;;1538518;76;809;-54
2023/09/30 00:36:12;;;;;;;;;;;22.10;58.00;;;;;;1542349;76;803;-53
2023/09/30 00:38:14;;;;;;;;;;;22.10;58.00;;;;;;1541713;76;794;-54
2023/09/30 00:40:16;;;;;;;;;;;22.10;58.10;;;;;;1541666;76;1565;-54
2023/09/30 00:42:20;;;;;;;;;;;22.10;57.90;;;;;;1545415;76;722;-54
2023/09/30 00:44:22;;;;;;;;;;;22.10;57.80;;;;;;1544623;76;606;-53
2023/09/30 00:46:27;;;;;;;;;;;22.10;58.00;;;;;;1543383;76;735;-52
2023/09/30 00:48:29;;;;;;;;;;;22.10;57.70;;;;;;1536668;76;1926;-52
2023/09/30 00:50:31;;;;;;;;;;;22.10;57.60;;;;;;1547519;75;1173;-52
2023/09/30 00:52:33;;;;;;;;;;;22.10;57.30;;;;;;1558516;75;742;-54
2023/09/30 00:54:37;;;;;;;;;;;22.10;57.60;;;;;;1547968;75;1598;-54
2023/09/30 00:56:41;;;;;;;;;;;22.10;57.40;;;;;;1549581;75;1642;-52
2023/09/30 00:58:43;;;;;;;;;;;22.10;57.40;;;;;;1549936;75;1684;-54
2023/09/30 01:00:45;;;;;;;;;;;22.10;57.40;;;;;;1551378;76;1142;-54
2023/09/30 01:02:47;;;;;;;;;;;22.10;58.40;;;;;;1543432;75;662;-54
2023/09/30 01:04:48;;;;;;;;;;;22.20;58.90;;;;;;1550960;76;874;-54
2023/09/30 01:06:50;;;;;;;;;;;22.20;59.00;;;;;;1545016;75;681;-54
2023/09/30 01:08:52;;;;;;;;;;;22.20;58.90;;;;;;1554385;75;1921;-55
2023/09/30 01:10:55;;;;;;;;;;;22.20;58.20;;;;;;1549454;76;1127;-54
2023/09/30 01:12:56;;;;;;;;;;;22.20;58.80;;;;;;1543558;75;785;-54
2023/09/30 01:15:00;;;;;;;;;;;22.30;59.00;;;;;;1550504;75;739;-53
2023/09/30 01:17:01;;;;;;;;;;;22.20;58.70;;;;;;1546482;75;758;-54
2023/09/30 01:19:04;;;;;;;;;;;22.20;58.30;;;;;;1546057;75;743;-54
2023/09/30 01:21:07;;;;;;;;;;;22.30;57.60;;;;;;1548042;74;1178;-52
2023/09/30 01:23:13;;;;;;;;;;;22.20;57.30;;;;;;1553898;75;1508;-52
2023/09/30 01:25:12;;;;;;;;;;;22.20;57.50;;;;;;1550031;76;1480;-53
2023/09/30 01:27:16;;;;;;;;;;;22.20;57.60;;;;;;1549707;75;808;-54
2023/09/30 01:29:17;;;;;;;;;;;22.20;57.60;;;;;;1548786;75;1940;-52
2023/09/30 01:31:19;;;;;;;;;;;22.20;57.50;;;;;;1546679;75;1121;-53
2023/09/30 01:33:22;;;;;;;;;;;22.20;57.30;;;;;;1543810;76;674;-52
2023/09/30 01:35:24;;;;;;;;;;;22.20;57.10;;;;;;1544308;75;1354;-53
2023/09/30 01:37:28;;;;;;;;;;;22.20;57.00;;;;;;1549097;75;796;-54
2023/09/30 01:39:30;;;;;;;;;;;22.20;57.10;;;;;;1551517;75;803;-52
2023/09/30 01:41:32;;;;;;;;;;;22.20;57.50;;;;;;1550325;75;1130;-54
2023/09/30 01:43:35;;;;;;;;;;;22.20;58.40;;;;;;1548356;76;776;-55
2023/09/30 01:45:37;;;;;;;;;;;22.20;58.70;;;;;;1554997;75;799;-54
2023/09/30 01:47:39;;;;;;;;;;;22.10;58.90;;;;;;1543964;75;1933;-54
2023/09/30 01:49:41;;;;;;;;;;;22.20;58.00;;;;;;1547434;75;1524;-52
2023/09/30 01:51:43;;;;;;;;;;;22.10;57.80;;;;;;1542278;76;1163;-52
2023/09/30 01:53:45;;;;;;;;;;;22.10;58.70;;;;;;1542606;76;690;-52
2023/09/30 01:55:47;;;;;;;;;;;22.10;57.90;;;;;;1542239;76;808;-54
2023/09/30 01:57:49;;;;;;;;;;;22.10;59.00;;;;;;1537986;76;802;-53
2023/09/30 01:59:51;;;;;;;;;;;22.10;59.00;;;;;;1541626;76;725;-53
2023/09/30 02:01:53;;;;;;;;;;;22.10;58.80;;;;;;1539856;76;1126;-51
2023/09/30 02:03:55;;;;;;;;;;;22.10;58.30;;;;;;1538086;76;1503;-53
2023/09/30 02:06:00;;;;;;;;;;;22.20;59.10;;;;;;1546793;76;788;-52
2023/09/30 02:08:05;;;;;;;;;;;22.10;59.20;;;;;;1545038;76;1947;-51
2023/09/30 02:10:07;;;;;;;;;;;22.20;59.10;;;;;;1543848;76;1618;-54
2023/09/30 02:12:09;;;;;;;;;;;22.10;57.60;;;;;;1536048;76;768;-53
2023/09/30 02:14:13;;;;;;;;;;;22.10;57.60;;;;;;1542580;76;821;-54
2023/09/30 02:16:15;;;;;;;;;;;22.10;57.80;;;;;;1538282;75;710;-53
2023/09/30 02:18:17;;;;;;;;;;;22.10;57.80;;;;;;1520578;76;1572;-53
2023/09/30 02:20:21;;;;;;;;;;;22.00;57.80;;;;;;1526532;76;1147;-52
2023/09/30 02:22:24;;;;;;;;;;;22.10;57.60;;;;;;1530642;77;1707;-50
2023/09/30 02:24:26;;;;;;;;;;;22.00;57.50;;;;;;1526066;76;696;-53
2023/09/30 02:26:29;;;;;;;;;;;22.10;57.50;;;;;;1525117;76;800;-51
2023/09/30 02:28:32;;;;;;;;;;;22.10;57.50;;;;;;1529742;76;1923;-54
2023/09/30 02:30:34;;;;;;;;;;;22.00;57.30;;;;;;1530966;76;1169;-53
2023/09/30 02:32:36;;;;;;;;;;;22.00;57.30;;;;;;1525220;76;1431;-53
2023/09/30 02:34:38;;;;;;;;;;;22.00;58.20;;;;;;1529897;76;744;-54
2023/09/30 02:36:40;;;;;;;;;;;22.00;59.00;;;;;;1538177;76;711;-53
2023/09/30 02:38:43;;;;;;;;;;;22.00;58.90;;;;;;1523182;75;797;-53
2023/09/30 02:40:46;;;;;;;;;;;22.00;59.20;;;;;;1539229;76;1147;-53
2023/09/30 02:42:48;;;;;;;;;;;22.10;58.70;;;;;;1531655;76;728;-54
2023/09/30 02:44:50;;;;;;;;;;;22.10;58.40;;;;;;1565077;74;837;-53
2023/09/30 02:46:53;;;;;;;;;;;22.10;59.30;;;;;;1557479;74;1303;-54
2023/09/30 02:48:54;;;;;;;;;;;22.10;59.20;;;;;;1558658;74;1920;-51
2023/09/30 02:50:56;;;;;;;;;;;22.00;59.10;;;;;;1519091;76;1148;-53
2023/09/30 02:52:58;;;;;;;;;;;22.10;59.10;;;;;;1543597;75;712;-51
2023/09/30 02:55:00;;;;;;;;;;;22.00;58.70;;;;;;1532414;75;801;-54
2023/09/30 02:57:03;;;;;;;;;;;22.10;57.70;;;;;;1534644;76;860;-54
2023/09/30 02:59:07;;;;;;;;;;;22.10;58.40;;;;;;1540042;76;697;-53
2023/09/30 03:01:09;;;;;;;;;;;22.10;58.10;;;;;;1532315;76;1568;-54
2023/09/30 03:03:11;;;;;;;;;;;22.10;58.10;;;;;;1531950;76;807;-53
2023/09/30 03:05:13;;;;;;;;;;;22.00;57.80;;;;;;1529563;76;684;-54
2023/09/30 03:07:15;;;;;;;;;;;22.00;57.70;;;;;;1534396;76;819;-53
2023/09/30 03:09:17;;;;;;;;;;;22.00;57.50;;;;;;1533248;76;1933;-53
2023/09/30 03:11:19;;;;;;;;;;;22.00;57.40;;;;;;1534981;76;1122;-53
2023/09/30 03:13:21;;;;;;;;;;;22.00;57.60;;;;;;1528841;76;795;-53
2023/09/30 03:15:23;;;;;;;;;;;22.00;57.60;;;;;;1531378;76;1653;-53
2023/09/30 03:17:25;;;;;;;;;;;22.00;57.60;;;;;;1535165;76;716;-52
2023/09/30 03:19:27;;;;;;;;;;;22.00;57.30;;;;;;1532856;76;767;-50
2023/09/30 03:21:29;;;;;;;;;;;22.00;57.50;;;;;;1532379;76;1149;-51
2023/09/30 03:23:31;;;;;;;;;;;22.00;57.40;;;;;;1526569;76;769;-52
2023/09/30 03:25:33;;;;;;;;;;;22.00;57.80;;;;;;1547074;76;855;-53
2023/09/30 03:27:36;;;;;;;;;;;22.00;57.30;;;;;;1531661;76;722;-53
2023/09/30 03:29:42;;;;;;;;;;;22.00;57.60;;;;;;1529874;76;1928;-52
2023/09/30 03:31:41;;;;;;;;;;;22.00;57.80;;;;;;1532554;76;1184;-53
2023/09/30 03:33:43;;;;;;;;;;;22.00;57.60;;;;;;1532906;76;772;-53
2023/09/30 03:35:45;;;;;;;;;;;22.00;57.50;;;;;;1532938;76;867;-54
2023/09/30 03:37:47;;;;;;;;;;;22.00;57.50;;;;;;1528877;76;734;-54
2023/09/30 03:39:49;;;;;;;;;;;22.00;57.40;;;;;;1542314;76;740;-52
2023/09/30 03:41:52;;;;;;;;;;;22.00;57.30;;;;;;1528793;76;1139;-53
2023/09/30 03:43:53;;;;;;;;;;;22.00;57.30;;;;;;1537835;76;1883;-53
2023/09/30 03:45:57;;;;;;;;;;;22.00;57.20;;;;;;1529961;76;759;-52
2023/09/30 03:47:59;;;;;;;;;;;22.00;57.30;;;;;;1530203;76;713;-53
2023/09/30 03:50:03;;;;;;;;;;;21.90;57.60;;;;;;1530961;76;1941;-53
2023/09/30 03:52:06;;;;;;;;;;;22.00;57.60;;;;;;1527986;76;1858;-53
2023/09/30 03:54:08;;;;;;;;;;;22.00;57.40;;;;;;1530940;76;750;-53
2023/09/30 03:56:13;;;;;;;;;;;22.00;57.50;;;;;;1530134;76;1530;-53
2023/09/30 03:58:17;;;;;;;;;;;21.90;57.30;;;;;;1531229;76;794;-52
2023/09/30 04:00:21;;;;;;;;;;;21.90;57.40;;;;;;1534849;76;1648;-53
2023/09/30 04:02:23;;;;;;;;;;;22.00;57.20;;;;;;1527300;76;729;-53
2023/09/30 04:04:25;;;;;;;;;;;22.00;57.40;;;;;;1535010;76;758;-53
2023/09/30 04:06:29;;;;;;;;;;;22.00;57.40;;;;;;1531953;76;763;-53
2023/09/30 04:08:33;;;;;;;;;;;22.00;57.60;;;;;;1533273;76;1940;-52
2023/09/30 04:10:34;;;;;;;;;;;21.90;57.50;;;;;;1529668;76;1578;-52
2023/09/30 04:12:36;;;;;;;;;;;22.00;57.60;;;;;;1530732;76;721;-52
2023/09/30 04:14:39;;;;;;;;;;;21.90;57.50;;;;;;1529250;76;809;-54
2023/09/30 04:16:41;;;;;;;;;;;22.00;57.10;;;;;;1529662;76;722;-52
2023/09/30 04:18:43;;;;;;;;;;;22.00;57.30;;;;;;1531399;76;782;-53
2023/09/30 04:20:46;;;;;;;;;;;22.00;57.80;;;;;;1531875;76;1083;-54
2023/09/30 04:22:48;;;;;;;;;;;22.00;57.40;;;;;;1537937;76;1672;-53
2023/09/30 04:24:50;;;;;;;;;;;22.00;57.30;;;;;;1527623;76;1330;-50
2023/09/30 04:26:56;;;;;;;;;;;22.00;58.90;;;;;;1542831;76;710;-52
2023/09/30 04:28:56;;;;;;;;;;;22.00;59.10;;;;;;1533711;76;1928;-52
2023/09/30 04:30:58;;;;;;;;;;;22.00;59.00;;;;;;1529164;76;1130;-52
2023/09/30 04:33:00;;;;;;;;;;;22.00;59.60;;;;;;1542436;76;672;-53
2023/09/30 04:35:04;;;;;;;;;;;22.00;59.30;;;;;;1530195;76;753;-52
2023/09/30 04:37:07;;;;;;;;;;;22.00;59.30;;;;;;1530731;76;758;-53
2023/09/30 04:39:12;;;;;;;;;;;22.00;59.20;;;;;;1537629;76;1517;-52
2023/09/30 04:41:13;;;;;;;;;;;22.00;59.40;;;;;;1537729;76;1734;-54
2023/09/30 04:43:14;;;;;;;;;;;22.00;58.90;;;;;;1539560;76;789;-53
2023/09/30 04:45:24;;;;;;;;;;;22.00;58.10;;;;;;1531048;76;726;-54
2023/09/30 04:47:26;;;;;;;;;;;22.00;58.30;;;;;;1538824;76;685;-53
2023/09/30 04:49:28;;;;;;;;;;;22.00;57.90;;;;;;1530816;76;1901;-54
2023/09/30 04:51:32;;;;;;;;;;;22.00;57.90;;;;;;1533029;76;1349;-53
2023/09/30 04:53:33;;;;;;;;;;;22.00;57.30;;;;;;1536307;76;1678;-54
2023/09/30 04:55:37;;;;;;;;;;;22.00;57.70;;;;;;1539080;76;759;-54
2023/09/30 04:57:39;;;;;;;;;;;22.00;57.40;;;;;;1538429;76;717;-53
2023/09/30 04:59:42;;;;;;;;;;;22.00;57.70;;;;;;1527969;76;725;-53
2023/09/30 05:01:44;;;;;;;;;;;22.00;58.20;;;;;;1532076;76;1189;-53
2023/09/30 05:03:49;;;;;;;;;;;22.00;58.10;;;;;;1533241;76;691;-52
2023/09/30 05:05:53;;;;;;;;;;;22.00;57.30;;;;;;1533201;76;1656;-53
2023/09/30 05:07:54;;;;;;;;;;;22.00;58.20;;;;;;1532566;76;2029;-53
2023/09/30 05:09:57;;;;;;;;;;;22.00;58.60;;;;;;1535251;76;1936;-54
2023/09/30 05:11:59;;;;;;;;;;;22.00;57.80;;;;;;1529843;76;1200;-54
2023/09/30 05:14:01;;;;;;;;;;;22.00;57.70;;;;;;1535279;76;747;-50
2023/09/30 05:16:07;;;;;;;;;;;22.00;58.20;;;;;;1534556;76;730;-53
2023/09/30 05:18:09;;;;;;;;;;;22.00;57.90;;;;;;1529823;76;743;-52
2023/09/30 05:20:12;;;;;;;;;;;22.00;57.60;;;;;;1534019;76;1131;-54
2023/09/30 05:22:15;;;;;;;;;;;22.00;57.30;;;;;;1532368;76;1634;-52
2023/09/30 05:24:19;;;;;;;;;;;22.00;57.90;;;;;;1532142;76;779;-54
2023/09/30 05:26:21;;;;;;;;;;;22.00;57.70;;;;;;1533760;76;771;-53
2023/09/30 05:28:23;;;;;;;;;;;22.00;57.40;;;;;;1537637;76;671;-52
2023/09/30 05:30:25;;;;;;;;;;;22.00;57.30;;;;;;1536876;76;1943;-53
2023/09/30 05:32:26;;;;;;;;;;;22.00;57.40;;;;;;1528596;76;772;-54
2023/09/30 05:34:28;;;;;;;;;;;22.00;57.80;;;;;;1530590;76;1521;-52
2023/09/30 05:36:30;;;;;;;;;;;22.00;57.70;;;;;;1530982;76;710;-54
2023/09/30 05:38:32;;;;;;;;;;;22.00;57.30;;;;;;1534629;76;695;-51
2023/09/30 05:40:34;;;;;;;;;;;22.00;57.30;;;;;;1534772;76;1149;-51
2023/09/30 05:42:36;;;;;;;;;;;22.00;57.30;;;;;;1528179;76;718;-53
2023/09/30 05:44:38;;;;;;;;;;;21.90;57.40;;;;;;1535326;76;754;-54
2023/09/30 05:46:42;;;;;;;;;;;22.00;57.70;;;;;;1536736;76;718;-54
2023/09/30 05:48:44;;;;;;;;;;;22.00;57.60;;;;;;1536050;76;1489;-52
2023/09/30 05:50:47;;;;;;;;;;;21.90;57.30;;;;;;1536164;76;1963;-55
2023/09/30 05:52:50;;;;;;;;;;;22.00;57.20;;;;;;1536377;76;1294;-54
2023/09/30 05:54:52;;;;;;;;;;;22.00;57.40;;;;;;1543844;76;718;-54
2023/09/30 05:56:54;;;;;;;;;;;22.00;57.80;;;;;;1540825;76;755;-52
2023/09/30 05:58:56;;;;;;;;;;;22.00;57.50;;;;;;1543660;76;741;-53
2023/09/30 06:01:00;;;;;;;;;;;22.00;57.80;;;;;;1542860;76;1204;-53
2023/09/30 06:03:01;;;;;;;;;;;22.00;57.80;;;;;;1544928;76;1666;-52
2023/09/30 06:05:03;;;;;;;;;;;22.00;58.30;;;;;;1549776;76;640;-55
2023/09/30 06:07:06;;;;;;;;;;;22.00;57.90;;;;;;1549616;76;685;-54
2023/09/30 06:09:08;;;;;;;;;;;21.90;57.30;;;;;;1545635;75;736;-54
2023/09/30 06:11:11;;;;;;;;;;;21.90;57.40;;;;;;1540051;76;1967;-53
2023/09/30 06:13:14;;;;;;;;;;;21.90;57.40;;;;;;1594440;73;2006;-49
2023/09/30 06:15:16;;;;;;;;;;;22.00;57.30;;;;;;1593968;73;716;-49
2023/09/30 06:17:22;;;;;;;;;;;22.00;57.40;;;;;;1603572;73;1584;-50
2023/09/30 06:19:25;;;;;;;;;;;22.00;56.90;;;;;;1591012;73;1655;-55
2023/09/30 06:21:29;;;;;;;;;;;22.00;56.70;;;;;;1537210;75;1738;-55
2023/09/30 06:23:30;;;;;;;;;;;21.90;56.70;;;;;;1553052;74;1504;-58
2023/09/30 06:25:33;;;;;;;;;;;21.90;57.10;;;;;;1555366;74;779;-56
2023/09/30 06:27:35;;;;;;;;;;;22.00;59.10;;;;;;1564084;74;792;-56
2023/09/30 06:29:37;;;;;;;;;;;22.00;59.40;;;;;;1566424;74;1923;-55
2023/09/30 06:31:39;;;;;;;;;;;22.10;59.50;;;;;;1543890;76;1521;-55
2023/09/30 06:33:41;;;;;;;;;;;22.10;59.10;;;;;;1536805;76;762;-56
2023/09/30 06:35:50;;;;;;;;;;;22.10;58.80;;;;;;1536891;75;727;-57
2023/09/30 06:37:47;;;;;;;;;;;22.00;58.60;;;;;;1544920;76;1085;-57
2023/09/30 06:39:49;;;;;;;;;;;22.10;58.90;;;;;;1602044;73;757;-55
2023/09/30 06:41:51;;;;;;;;;;;22.00;59.50;;;;;;1597085;73;1173;-57
2023/09/30 06:43:53;;;;;;;;;;;22.00;59.70;;;;;;1594797;73;711;-56
2023/09/30 06:45:55;;;;;;;;;;;22.00;59.60;;;;;;1587397;73;1548;-56
2023/09/30 06:47:58;;;;;;;;;;;22.00;59.60;;;;;;1596423;73;723;-55
2023/09/30 06:50:07;;;;;;;;;;;22.00;60.00;;;;;;1614603;73;1915;-56
2023/09/30 06:52:04;;;;;;;;;;;21.90;59.60;;;;;;1604940;73;1679;-55
2023/09/30 06:54:09;;;;;;;;;;;21.90;59.80;;;;;;1604935;73;1086;-56
2023/09/30 06:56:12;;;;;;;;;;;22.00;59.60;;;;;;1584196;73;721;-57
2023/09/30 06:58:18;;;;;;;;;;;21.90;59.70;;;;;;1555219;74;730;-56
2023/09/30 07:00:17;;;;;;;;;;;22.00;59.80;;;;;;1535511;76;1731;-57
2023/09/30 07:02:19;;;;;;;;;;;22.00;59.70;;;;;;1531350;76;732;-53
2023/09/30 07:04:21;;;;;;;;;;;22.00;59.30;;;;;;1537851;76;735;-56
2023/09/30 07:06:24;;;;;;;;;;;22.00;59.00;;;;;;1532427;75;755;-53
2023/09/30 07:08:26;;;;;;;;;;;22.10;58.90;;;;;;1545476;75;799;-56
2023/09/30 07:10:29;;;;;;;;;;;22.10;59.00;;;;;;1533256;76;1948;-57
2023/09/30 07:12:31;;;;;;;;;;;22.10;59.80;;;;;;1531017;76;719;-54
2023/09/30 07:14:33;;;;;;;;;;;22.10;58.20;;;;;;1532635;76;1256;-53
2023/09/30 07:16:35;;;;;;;;;;;22.00;57.80;;;;;;1530085;76;763;-56
2023/09/30 07:18:37;;;;;;;;;;;22.00;57.10;;;;;;1556787;74;851;-56
2023/09/30 07:20:39;;;;;;;;;;;22.00;57.50;;;;;;1558918;74;1254;-57
2023/09/30 07:22:41;;;;;;;;;;;21.90;57.10;;;;;;1549001;76;1464;-57
2023/09/30 07:24:43;;;;;;;;;;;21.80;56.80;;;;;;1541413;76;1258;-55
2023/09/30 07:26:45;;;;;;;;;;;21.70;56.80;;;;;;1542362;76;1342;-56
2023/09/30 07:28:47;;;;;;;;;;;21.60;56.60;;;;;;1544969;76;1368;-56
2023/09/30 07:30:49;;;;;;;;;;;21.60;56.80;;;;;;1551251;76;1911;-56
2023/09/30 07:32:51;;;;;;;;;;;21.60;56.80;;;;;;1539979;76;1401;-58
2023/09/30 07:34:53;;;;;;;;;;;21.60;56.80;;;;;;1545818;76;1476;-57
2023/09/30 07:36:55;;;;;;;;;;;21.50;56.80;;;;;;1548367;76;1319;-54
2023/09/30 07:38:57;;;;;;;;;;;21.50;56.70;;;;;;1544855;75;1173;-56
2023/09/30 07:41:01;;;;;;;;;;;21.40;56.70;;;;;;1542887;76;1487;-58
2023/09/30 07:43:03;;;;;;;;;;;21.40;56.80;;;;;;1542692;76;1377;-55
2023/09/30 07:45:06;;;;;;;;;;;21.40;56.80;;;;;;1549422;76;1074;-57
2023/09/30 07:47:12;;;;;;;;;;;21.40;56.70;;;;;;1546948;76;1053;-54
2023/09/30 07:49:11;;;;;;;;;;;21.40;56.70;;;;;;1541402;76;1210;-56
2023/09/30 07:51:15;;;;;;;;;;;21.40;56.60;;;;;;1541962;76;1941;-55
2023/09/30 07:53:17;;;;;;;;;;;21.40;56.70;;;;;;1550401;76;1320;-54
2023/09/30 07:55:19;;;;;;;;;;;21.50;57.30;;;;;;1537147;76;1488;-54
2023/09/30 07:57:21;;;;;;;;;;;21.50;57.00;;;;;;1543580;76;1333;-55
2023/09/30 07:59:22;;;;;;;;;;;21.60;57.20;;;;;;1538868;76;1305;-54
2023/09/30 08:01:24;;;;;;;;;;;21.60;56.60;;;;;;1540364;76;1178;-57
2023/09/30 08:05:35;;;;;;;;;;;21.60;56.70;;;;;;1607003;72;1120;-55
2023/09/30 08:07:37;;;;;;;;;;;21.60;56.50;;;;;;1591170;73;1458;-55
2023/09/30 08:09:39;;;;;;;;;;;21.60;56.40;;;;;;1600905;73;1319;-57
2023/09/30 08:11:41;;;;;;;;;;;21.50;56.40;;;;;;1584335;73;1286;-57
2023/09/30 08:13:43;;;;;;;;;;;21.60;56.50;;;;;;1574891;74;1092;-57
2023/09/30 08:15:45;;;;;;;;;;;21.60;56.40;;;;;;1575383;74;1543;-56
2023/09/30 08:17:47;;;;;;;;;;;21.60;56.40;;;;;;1577713;74;1290;-58
2023/09/30 08:19:48;;;;;;;;;;;21.50;56.40;;;;;;1564009;74;1101;-56
2023/09/30 08:21:50;;;;;;;;;;;21.60;56.70;;;;;;1572671;74;1205;-55
2023/09/30 08:23:53;;;;;;;;;;;21.60;56.60;;;;;;1577430;74;1916;-56
2023/09/30 08:25:57;;;;;;;;;;;21.60;56.30;;;;;;1560559;74;1332;-55
2023/09/30 08:28:00;;;;;;;;;;;21.60;56.10;;;;;;1578366;74;1369;-55
2023/09/30 08:30:05;;;;;;;;;;;21.60;55.70;;;;;;1565454;74;1316;-55
2023/09/30 08:32:07;;;;;;;;;;;21.60;55.80;;;;;;1567115;74;1676;-57
2023/09/30 08:34:08;;;;;;;;;;;21.50;55.90;;;;;;1571682;74;1387;-55
2023/09/30 08:36:10;;;;;;;;;;;21.50;55.80;;;;;;1566771;74;1580;-57
2023/09/30 08:38:12;;;;;;;;;;;21.50;55.80;;;;;;1570996;74;1520;-57
2023/09/30 08:40:16;;;;;;;;;;;21.60;55.70;;;;;;1568998;74;1157;-55
2023/09/30 08:42:20;;;;;;;;;;;21.60;55.90;;;;;;1569705;74;1666;-56
2023/09/30 08:44:22;;;;;;;;;;;21.60;55.90;;;;;;1568472;74;1915;-56
2023/09/30 08:46:24;;;;;;;;;;;21.60;55.80;;;;;;1570821;74;1085;-56
2023/09/30 08:48:29;;;;;;;;;;;21.60;55.60;;;;;;1570739;74;1535;-54
2023/09/30 08:50:31;;;;;;;;;;;21.70;56.00;;;;;;1571180;74;1329;-56
2023/09/30 08:52:37;;;;;;;;;;;21.70;56.30;;;;;;1571789;74;1553;-57
2023/09/30 08:54:38;;;;;;;;;;;21.80;55.80;;;;;;1571110;74;1974;-57
2023/09/30 08:56:40;;;;;;;;;;;21.70;55.50;;;;;;1568290;74;1110;-58
2023/09/30 08:58:41;;;;;;;;;;;21.70;55.60;;;;;;1570897;74;1417;-58
2023/09/30 09:00:45;;;;;;;;;;;21.70;55.50;;;;;;1564797;74;1465;-57
2023/09/30 09:02:47;;;;;;;;;;;21.60;55.10;;;;;;1579422;74;1335;-56
2023/09/30 09:04:53;;;;;;;;;;;21.60;55.20;;;;;;1583654;74;1923;-56
2023/09/30 09:06:53;;;;;;;;;;;21.50;55.10;;;;;;1573661;74;1590;-58
2023/09/30 09:08:55;;;;;;;;;;;21.50;55.10;;;;;;1580799;74;1477;-55
2023/09/30 09:10:58;;;;;;;;;;;21.50;55.30;;;;;;1542510;75;1392;-57
2023/09/30 09:13:00;;;;;;;;;;;21.60;55.70;;;;;;1577313;74;1332;-56
2023/09/30 09:15:02;;;;;;;;;;;21.60;55.30;;;;;;1574724;74;1083;-57
2023/09/30 09:17:05;;;;;;;;;;;21.60;55.20;;;;;;1562457;74;1376;-58
2023/09/30 09:19:17;;;;;;;;;;;21.60;55.00;;;;;;1568843;75;1301;-56
2023/09/30 09:21:20;;;;;;;;;;;21.60;55.00;;;;;;1571016;74;1331;-56
2023/09/30 09:23:22;;;;;;;;;;;21.60;55.20;;;;;;1581882;74;1138;-55
2023/09/30 09:25:24;;;;;;;;;;;21.60;55.20;;;;;;1567774;74;1947;-58
2023/09/30 09:27:26;;;;;;;;;;;21.70;55.20;;;;;;1569037;74;1340;-56
2023/09/30 09:29:28;;;;;;;;;;;21.70;55.20;;;;;;1562901;74;1508;-57
2023/09/30 09:31:31;;;;;;;;;;;21.70;55.00;;;;;;1563443;74;1497;-58
2023/09/30 09:33:37;;;;;;;;;;;21.70;54.90;;;;;;1567177;74;1275;-59
2023/09/30 09:35:38;;;;;;;;;;;21.70;55.00;;;;;;1566835;74;1052;-58
2023/09/30 09:37:40;;;;;;;;;;;21.60;54.90;;;;;;1570666;73;1422;-55
2023/09/30 09:43:12;;;;;;;;;;;21.60;54.70;;;;;;1594079;72;1025;-56
2023/09/30 09:45:14;;;;;;;;;;;21.60;54.70;;;;;;1583883;73;1267;-57
2023/09/30 09:47:16;;;;;;;;;;;21.70;54.50;;;;;;1578652;73;1459;-57
2023/09/30 09:49:18;;;;;;;;;;;21.70;54.50;;;;;;1580282;73;1679;-58
2023/09/30 09:51:20;;;;;;;;;;;21.80;54.20;;;;;;1576723;74;1201;-58
2023/09/30 09:53:22;;;;;;;;;;;21.70;54.40;;;;;;1563872;74;1265;-58
2023/09/30 09:55:24;;;;;;;;;;;21.70;54.50;;;;;;1561892;74;1282;-56
2023/09/30 09:57:26;;;;;;;;;;;21.70;54.40;;;;;;1567071;74;1541;-56
2023/09/30 09:59:27;;;;;;;;;;;21.80;54.50;;;;;;1567427;75;1180;-58
2023/09/30 10:01:29;;;;;;;;;;;21.70;54.40;;;;;;1562047;75;1950;-56
2023/09/30 10:03:31;;;;;;;;;;;21.80;54.20;;;;;;1562068;75;1639;-55
2023/09/30 10:05:33;;;;;;;;;;;21.80;54.40;;;;;;1562960;75;1327;-55
2023/09/30 10:07:36;;;;;;;;;;;21.80;54.10;;;;;;1562108;74;1175;-58
2023/09/30 10:09:38;;;;;;;;;;;21.80;53.80;;;;;;1568486;74;1291;-57
2023/09/30 10:11:40;;;;;;;;;;;21.80;54.10;;;;;;1569067;74;1156;-57
2023/09/30 10:13:52;;;;;;;;;;;21.90;54.20;;;;;;1567597;75;712;-58
2023/09/30 10:15:54;;;;;;;;;;;21.80;53.60;;;;;;1565926;75;1267;-55
2023/09/30 10:17:59;;;;;;;;;;;21.80;54.00;;;;;;1560454;74;670;-57
2023/09/30 10:20:09;;;;;;;;;;;21.80;54.00;;;;;;1568174;75;750;-55
2023/09/30 10:22:29;;;;;;;;;;;21.80;53.90;;;;;;1559276;75;1928;-56
2023/09/30 10:24:29;;;;;;;;;;;21.90;54.20;;;;;;1563338;75;1327;-57
2023/09/30 10:26:31;;;;;;;;;;;21.80;53.80;;;;;;1564854;75;743;-56
2023/09/30 10:28:40;;;;;;;;;;;21.90;53.80;;;;;;1564422;75;782;-56
2023/09/30 10:30:44;;;;;;;;;;;21.90;53.90;;;;;;1565975;75;1478;-57
2023/09/30 10:32:53;;;;;;;;;;;21.90;53.90;;;;;;1559817;75;1489;-57
2023/09/30 10:34:55;;;;;;;;;;;21.90;53.90;;;;;;1567196;75;702;-56
2023/09/30 10:36:57;;;;;;;;;;;21.90;54.10;;;;;;1558718;75;795;-58
2023/09/30 10:38:59;;;;;;;;;;;21.90;53.80;;;;;;1568628;74;731;-56
2023/09/30 10:41:05;;;;;;;;;;;21.90;53.50;;;;;;1560741;74;1150;-57
2023/09/30 10:43:07;;;;;;;;;;;21.80;53.40;;;;;;1565483;75;1934;-57
2023/09/30 10:45:09;;;;;;;;;;;21.80;52.50;;;;;;1523100;76;1619;-57
2023/09/30 10:47:24;;;;;;;;;;;21.80;52.20;;;;;;1531479;76;1596;-58
2023/09/30 10:49:28;;;;;;;;;;;21.70;52.30;;;;;;1560205;75;741;-58
2023/09/30 10:51:30;;;;;;;;;;;21.80;52.80;;;;;;1568644;74;1189;-57
2023/09/30 10:53:31;;;;;;;;;;;21.70;53.00;;;;;;1563536;74;733;-57
2023/09/30 10:55:33;;;;;;;;;;;21.70;53.00;;;;;;1563540;75;715;-57
2023/09/30 10:57:35;;;;;;;;;;;21.70;52.10;;;;;;1563519;75;965;-55
2023/09/30 10:59:37;;;;;;;;;;;21.80;52.20;;;;;;1566947;75;1528;-55
2023/09/30 11:01:39;;;;;;;;;;;21.80;52.80;;;;;;1563833;75;1952;-59
2023/09/30 11:03:41;;;;;;;;;;;21.80;52.00;;;;;;1562509;74;782;-58
2023/09/30 11:05:45;;;;;;;;;;;21.80;51.50;;;;;;1560080;75;734;-54
2023/09/30 11:07:48;;;;;;;;;;;21.80;51.00;;;;;;1561534;74;1494;-57
2023/09/30 11:09:50;;;;;;;;;;;21.80;51.00;;;;;;1558621;75;1198;-56
2023/09/30 11:11:54;;;;;;;;;;;21.80;51.50;;;;;;1553346;75;1067;-56
2023/09/30 11:13:55;;;;;;;;;;;21.80;52.00;;;;;;1548800;75;725;-58
2023/09/30 11:16:02;;;;;;;;;;;21.90;52.20;;;;;;1566000;74;780;-57
2023/09/30 11:18:14;;;;;;;;;;;21.90;52.10;;;;;;1556369;75;1087;-57
2023/09/30 11:20:18;;;;;;;;;;;21.80;51.80;;;;;;1553314;74;1142;-57
2023/09/30 11:22:20;;;;;;;;;;;21.80;50.70;;;;;;1561950;74;1977;-58
2023/09/30 11:24:22;;;;;;;;;;;21.80;51.10;;;;;;1569323;75;734;-58
2023/09/30 11:26:34;;;;;;;;;;;21.70;51.20;;;;;;1554734;75;1495;-58
2023/09/30 11:28:39;;;;;;;;;;;21.80;51.40;;;;;;1550499;75;1611;-58
2023/09/30 11:30:57;;;;;;;;;;;21.70;52.00;;;;;;1564801;73;1192;-57
2023/09/30 11:33:00;;;;;;;;;;;21.80;52.60;;;;;;1559806;75;744;-55
2023/09/30 11:35:02;;;;;;;;;;;21.80;51.80;;;;;;1556185;75;773;-57
2023/09/30 11:37:05;;;;;;;;;;;21.90;52.20;;;;;;1546739;74;838;-58
2023/09/30 11:39:09;;;;;;;;;;;21.90;51.10;;;;;;1562477;75;771;-58
2023/09/30 11:41:10;;;;;;;;;;;21.90;51.50;;;;;;1566531;74;1671;-57
2023/09/30 11:43:14;;;;;;;;;;;21.80;51.90;;;;;;1563117;74;1934;-57
2023/09/30 11:45:24;;;;;;;;;;;21.90;51.60;;;;;;1564298;75;731;-56
2023/09/30 11:47:34;;;;;;;;;;;21.90;51.50;;;;;;1545796;75;1120;-59
2023/09/30 11:49:40;;;;;;;;;;;21.90;51.80;;;;;;1544375;75;1686;-59
2023/09/30 11:51:48;;;;;;;;;;;21.90;51.80;;;;;;1548906;75;1545;-57
2023/09/30 11:53:50;;;;;;;;;;;21.90;51.50;;;;;;1545165;75;1185;-58
2023/09/30 11:55:55;;;;;;;;;;;21.90;51.60;;;;;;1536252;75;1576;-59
2023/09/30 11:57:55;;;;;;;;;;;21.90;51.60;;;;;;1551573;75;1653;-58
2023/09/30 11:59:57;;;;;;;;;;;22.00;52.00;;;;;;1531051;75;1303;-58
2023/09/30 12:01:59;;;;;;;;;;;21.90;51.40;;;;;;1553457;75;1965;-57
2023/09/30 12:04:01;;;;;;;;;;;21.90;51.30;;;;;;1549997;75;1271;-58
2023/09/30 12:06:03;;;;;;;;;;;21.80;51.70;;;;;;1548390;75;1313;-57
2023/09/30 12:08:05;;;;;;;;;;;21.90;52.90;;;;;;1535572;75;1308;-57
2023/09/30 12:10:07;;;;;;;;;;;21.90;53.90;;;;;;1543526;75;1547;-59
2023/09/30 12:12:14;;;;;;;;;;;21.90;53.10;;;;;;1539482;75;1335;-57
2023/09/30 12:14:12;;;;;;;;;;;21.90;52.80;;;;;;1548926;75;1535;-57
2023/09/30 12:16:15;;;;;;;;;;;21.90;52.60;;;;;;1548255;75;1048;-57